עמוד ראשי
METAR-TAF:

METAR-TAF

שדות תעופה :

Pasto, קולומביה

קו רוחב: 01-25N, קו אורך: 077-16W, גובה: 1826מטר

תצפית מזג אוויר נוכחית

הדו"ח נערך לפני 2 שעות ו 12דקות, בשעה 13:00 UTC
רוח 3קשר מכיוון דרום-מזרח, משתנה בין מזרח ו דרום
טמפרטורת 18 צלסיוס
לחות 88%
לחץ 1022 hPa
ראות 10 קילומטר או יותר
מעט עננים בגובה 2000רגל
עננים בינוניים בגובה 10000רגל

METAR: SKPS 241300Z 14003KT 080V190 9999 FEW020 BKN100 18/16 Q1022

זמן: 10:12 (15:12 UTC)


TAF: חסר

תצפיות ותחזיות מזג אוויר לגבי יותר מ- 4,000 שדות תעופה ברחבי העולם. דוחות METAR ו- TAF.

התחנות הזמינות מסומנות בנקודות צהובות ואדומות על גבי המפה.

העבר את העכבר לנקודה הצבעונית על מנת לראות את שם התחנה.

לאחר מכן, לחץ כדי לראות את תוכן ואת תחזיות מזג האוויר.

כדי לשנות את המפה: לחץ על הכפתורים הירוקים עם הפלוס השחור כדי להתקרב; על הכפתור הירוק עם המקף כדי להתרחק; או בחיצים הירוקים למפות סמוכות.


METAR-TAF: